Aérodrome :
LOGIN :

S'inscrire | Disclaimer

   EN    FR    IT 

 










Légende :    VFR   VFR Marginal   IFR   IFR Intensif   IFR Très Intensif
Visi : 
Plafond : 
>= 8 km
>= 3000ft
5 à 8 km
1000 à 3000 ft
1500m à 5 km
500 à 1000 ft
800 à 1500m
200 à 500 ft
< 800m
< 200 ft
Symboles :   Orages  Brouillard  Fortes neiges  Fortes précipitations  Vent > 20 kt
SIGMETs :   Divers  Orages  Givrage  Turbulence  Onde Orograph.  Cendres Volcan.






- Altitude de l'aérodrome : 1299 ft


EDTY - Adolf Würth

DERNIER METAR :
  • 210120Z AUTO VRB01KT 9000 // NCD M04/M04 Q1042

METARs EXPIRÉS :
  • 210050Z AUTO 08002KT 9999 // NCD M03/M04 Q1042
  • 210020Z AUTO 08003KT 9999 // NCD M02/M03 Q1042
  • 202350Z AUTO 09003KT 9999 // NCD M02/M03 Q1042
  • 202320Z AUTO 09004KT 9999 // NCD M03/M04 Q1042
  • 202250Z AUTO 10003KT 9999 // NCD M03/M03 Q1042

TAF TAF EDTY
Valide du 20 à 18h jusqu'au 21 à 03h UTC


201700Z 2018/2103 06006KT CAVOK
PROB30
TEMPO 2101/2103 3000 BR BKN005



MET'MAP, la Météo Aéronautique d'un coup d'oeil ! - Copyright ORBIFLY Décembre 2007 - Disclaimer

ORBIFLY MET'MAP TEAM :

Programmation & Développement : Alexandra Zaïnal
Sur une idée originale de : Baudouin d'Aumeries
Assistance à la programmation : Marc-Olivier Méhu
Soutien technique & logistique : Manuel Goepfert

Contact : metmap@orbifly.com




SOURCES & CREDITS :

   NOAA